Terminal Aerodrome Forecast
Issued by NWS Tulsa, OK

Home | Current Version | Previous Version | Text Only | Print | Product List | Glossary On
Versions: 1 2 3 4 5 6 7 8 9 10 11 12 13
000
FTUS44 KTSA 021128
TAFTUL
TAF
KTUL 021128Z 0212/0312 16007KT P6SM FEW250
     FM021700 18011G18KT P6SM FEW050
     FM030000 16007KT P6SM SKC=

USA.gov is the U.S. government's official web portal to all federal, state and local government web resources and services.